| time (UTC) | temp F | wind direction | speed MPH | gust MPH | rain 1hr in | rain 24hr in | rain mn in | humidity % | barometer mb |
| 20260509170603 | 62 | 207 | 1.0 | 11.0 | 0.00 | 0.00 | 0.00 | 71 | 1010.7 |
| 20260509165603 | 62 | 223 | 1.0 | 8.0 | 0.00 | 0.00 | 0.00 | 72 | 1010.7 |
| 20260509164603 | 62 | 224 | 1.0 | 8.0 | 0.00 | 0.00 | 0.00 | 75 | 1011.0 |
| 20260509163625 | 62 | 220 | 4.0 | 9.0 | 0.00 | 0.00 | 0.00 | 74 | 1011.2 |
| 20260509162604 | 62 | 219 | 0.0 | 7.0 | 0.00 | 0.00 | 0.00 | 77 | 1011.0 |
| 20260509161604 | 61 | 221 | 1.0 | 7.0 | 0.00 | 0.00 | 0.00 | 76 | 1011.3 |
| 20260509160624 | 61 | 236 | 0.0 | 6.0 | 0.00 | 0.00 | 0.00 | 77 | 1011.6 |
| 20260509155604 | 61 | 239 | 1.0 | 8.0 | 0.00 | 0.00 | 0.00 | 78 | 1011.6 |
| 20260509154604 | 60 | 254 | 0.0 | 8.0 | 0.00 | 0.00 | 0.00 | 79 | 1011.8 |
| 20260509153645 | 60 | 259 | 0.0 | 6.0 | 0.00 | 0.00 | 0.00 | 81 | 1011.6 |
| 20260509152603 | 59 | 260 | 0.0 | 7.0 | 0.00 | 0.00 | 0.00 | 81 | 1012.0 |
| 20260509151625 | 58 | 264 | 0.0 | 0.0 | 0.00 | 0.00 | 0.00 | 83 | 1012.1 |
| 20260509150603 | 58 | 264 | 0.0 | 0.0 | 0.00 | 0.00 | 0.00 | 84 | 1012.0 |
| 20260509145624 | 58 | 263 | 0.0 | 7.0 | 0.00 | 0.00 | 0.00 | 82 | 1012.1 |
| 20260509144604 | 58 | 269 | 0.0 | 4.0 | 0.00 | 0.00 | 0.00 | 83 | 1012.2 |
| 20260509143603 | 58 | 275 | 0.0 | 0.0 | 0.00 | 0.00 | 0.00 | 86 | 1012.0 |
| 20260509142604 | 57 | 275 | 0.0 | 0.0 | 0.00 | 0.00 | 0.00 | 87 | 1012.0 |
| 20260509141625 | 57 | 275 | 0.0 | 0.0 | 0.00 | 0.00 | 0.00 | 89 | 1012.0 |
| 20260509140603 | 56 | 275 | 0.0 | 0.0 | 0.00 | 0.00 | 0.00 | 91 | 1011.9 |
| 20260509135603 | 55 | 275 | 0.0 | 0.0 | 0.00 | 0.00 | 0.00 | 91 | 1012.1 |
| 20260509133625 | 53 | 275 | 0.0 | 0.0 | 0.00 | 0.00 | 0.00 | 92 | 1012.0 |
| 20260509132603 | 53 | 244 | 0.0 | 0.0 | 0.00 | 0.00 | 0.00 | 93 | 1012.2 |
| 20260509131603 | 52 | 244 | 0.0 | 0.0 | 0.00 | 0.00 | 0.00 | 93 | 1012.4 |
| 20260509130604 | 52 | 244 | 0.0 | 0.0 | 0.00 | 0.00 | 0.00 | 94 | 1012.6 |
| 20260509125603 | 52 | 246 | 0.0 | 0.0 | 0.00 | 0.00 | 0.00 | 94 | 1012.8 |
| 20260509123603 | 51 | 246 | 0.0 | 0.0 | 0.00 | 0.00 | 0.00 | 94 | 1012.7 |
| 20260509122624 | 51 | 246 | 0.0 | 0.0 | 0.00 | 0.00 | 0.00 | 95 | 1012.8 |
| 20260509121603 | 51 | 246 | 0.0 | 0.0 | 0.00 | 0.00 | 0.00 | 95 | 1012.9 |
| 20260509120603 | 50 | 246 | 0.0 | 0.0 | 0.00 | 0.00 | 0.00 | 95 | 1012.7 |
| 20260509115603 | 50 | 246 | 0.0 | 0.0 | 0.00 | 0.00 | 0.00 | 95 | 1012.6 |
| 20260509114604 | 50 | 246 | 0.0 | 0.0 | 0.00 | 0.00 | 0.00 | 95 | 1012.1 |
| 20260509113603 | 50 | 246 | 0.0 | 0.0 | 0.00 | 0.00 | 0.00 | 95 | 1012.4 |
| 20260509112603 | 50 | 246 | 0.0 | 0.0 | 0.00 | 0.00 | 0.00 | 95 | 1012.7 |
| 20260509111603 | 49 | 246 | 0.0 | 0.0 | 0.00 | 0.00 | 0.00 | 95 | 1013.0 |
| 20260509110603 | 49 | 246 | 0.0 | 0.0 | 0.00 | 0.00 | 0.00 | 95 | 1012.9 |
| 20260509105604 | 49 | 246 | 0.0 | 0.0 | 0.00 | 0.00 | 0.00 | 95 | 1012.8 |
| 20260509104646 | 49 | 246 | 0.0 | 0.0 | 0.00 | 0.00 | 0.00 | 95 | 1012.4 |
| 20260509103603 | 49 | 246 | 0.0 | 0.0 | 0.00 | 0.00 | 0.00 | 95 | 1012.6 |
| 20260509102603 | 49 | 246 | 0.0 | 0.0 | 0.00 | 0.00 | 0.00 | 95 | 1012.4 |
| 20260509101625 | 49 | 246 | 0.0 | 0.0 | 0.00 | 0.00 | 0.00 | 95 | 1012.2 |
| 20260509100603 | 49 | 246 | 0.0 | 0.0 | 0.00 | 0.00 | 0.00 | 95 | 1012.3 |
| 20260509095645 | 49 | 246 | 0.0 | 0.0 | 0.00 | 0.00 | 0.00 | 95 | 1012.3 |
| 20260509094604 | 49 | 246 | 0.0 | 0.0 | 0.00 | 0.00 | 0.00 | 95 | 1012.3 |
| 20260509093603 | 49 | 246 | 0.0 | 0.0 | 0.00 | 0.00 | 0.00 | 95 | 1012.3 |
| 20260509092604 | 49 | 246 | 0.0 | 0.0 | 0.00 | 0.00 | 0.00 | 95 | 1012.4 |
| 20260509091603 | 49 | 246 | 0.0 | 0.0 | 0.00 | 0.00 | 0.00 | 94 | 1012.4 |
| 20260509090604 | 49 | 246 | 0.0 | 0.0 | 0.00 | 0.00 | 0.00 | 95 | 1012.5 |
| 20260509085603 | 49 | 246 | 0.0 | 0.0 | 0.00 | 0.00 | 0.00 | 94 | 1012.4 |
| 20260509084624 | 49 | 246 | 0.0 | 0.0 | 0.00 | 0.00 | 0.00 | 94 | 1012.4 |
| 20260509083604 | 49 | 246 | 0.0 | 0.0 | 0.00 | 0.00 | 0.00 | 94 | 1012.5 |
| 20260509082604 | 49 | 246 | 0.0 | 0.0 | 0.00 | 0.00 | 0.00 | 94 | 1012.7 |
| 20260509081604 | 49 | 246 | 0.0 | 0.0 | 0.00 | 0.00 | 0.00 | 94 | 1012.7 |
| 20260509080604 | 49 | 246 | 0.0 | 0.0 | 0.00 | 0.00 | 0.00 | 94 | 1012.6 |
| 20260509075604 | 49 | 246 | 0.0 | 0.0 | 0.00 | 0.00 | 0.00 | 94 | 1012.7 |
| 20260509074603 | 49 | 246 | 0.0 | 0.0 | 0.00 | 0.00 | 0.00 | 94 | 1012.8 |
| 20260509073603 | 49 | 246 | 0.0 | 0.0 | 0.00 | 0.00 | 0.00 | 94 | 1012.8 |
| 20260509072625 | 49 | 246 | 0.0 | 0.0 | 0.00 | 0.00 | 0.00 | 94 | 1012.7 |
| 20260509070604 | 49 | 246 | 0.0 | 0.0 | 0.00 | 0.00 | 0.00 | 93 | 1012.3 |
| 20260509065603 | 49 | 246 | 0.0 | 0.0 | 0.00 | 0.00 | 0.00 | 93 | 1012.2 |
| 20260509064603 | 49 | 246 | 0.0 | 0.0 | 0.00 | 0.01 | 0.00 | 93 | 1012.3 |
| 20260509063603 | 49 | 246 | 0.0 | 0.0 | 0.00 | 0.01 | 0.00 | 93 | 1012.4 |
| 20260509062603 | 49 | 246 | 0.0 | 0.0 | 0.00 | 0.02 | 0.00 | 93 | 1012.8 |
| 20260509061603 | 49 | 246 | 0.0 | 0.0 | 0.00 | 0.02 | 0.00 | 93 | 1012.8 |
| 20260509060603 | 49 | 246 | 0.0 | 0.0 | 0.00 | 0.03 | 0.00 | 92 | 1013.1 |
| 20260509055624 | 49 | 246 | 0.0 | 0.0 | 0.00 | 0.03 | 0.00 | 92 | 1012.9 |
| 20260509054603 | 49 | 246 | 0.0 | 0.0 | 0.00 | 0.04 | 0.00 | 92 | 1013.1 |
| 20260509053604 | 49 | 246 | 0.0 | 0.0 | 0.00 | 0.04 | 0.00 | 91 | 1013.3 |
| 20260509052603 | 49 | 246 | 0.0 | 0.0 | 0.00 | 0.04 | 0.00 | 91 | 1013.4 |
| 20260509051603 | 49 | 246 | 0.0 | 0.0 | 0.00 | 0.04 | 0.00 | 90 | 1013.3 |
| 20260509050604 | 49 | 246 | 0.0 | 0.0 | 0.00 | 0.04 | 0.00 | 90 | 1013.2 |
| 20260509045603 | 49 | 246 | 0.0 | 0.0 | 0.00 | 0.04 | 0.00 | 90 | 1013.4 |
| 20260509044603 | 49 | 246 | 0.0 | 0.0 | 0.00 | 0.04 | 0.00 | 89 | 1013.3 |
| 20260509043624 | 49 | 246 | 0.0 | 0.0 | 0.00 | 0.04 | 0.00 | 89 | 1013.3 |
| 20260509042603 | 49 | 246 | 0.0 | 0.0 | 0.00 | 0.04 | 0.00 | 89 | 1013.2 |
| 20260509041603 | 50 | 246 | 0.0 | 0.0 | 0.00 | 0.04 | 0.00 | 88 | 1013.1 |
| 20260509040603 | 50 | 246 | 0.0 | 0.0 | 0.00 | 0.04 | 0.00 | 87 | 1013.2 |
| 20260509035604 | 50 | 246 | 0.0 | 0.0 | 0.00 | 0.04 | 0.04 | 87 | 1013.4 |
| 20260509034603 | 50 | 246 | 0.0 | 0.0 | 0.00 | 0.04 | 0.04 | 87 | 1013.2 |
| 20260509033603 | 51 | 246 | 0.0 | 0.0 | 0.00 | 0.04 | 0.04 | 87 | 1013.3 |
| 20260509032625 | 51 | 246 | 0.0 | 0.0 | 0.00 | 0.04 | 0.04 | 87 | 1013.3 |
| 20260509031602 | 51 | 246 | 0.0 | 0.0 | 0.00 | 0.04 | 0.04 | 86 | 1013.5 |
| 20260509030604 | 51 | 246 | 0.0 | 0.0 | 0.00 | 0.04 | 0.04 | 86 | 1013.6 |
| 20260509025604 | 51 | 246 | 0.0 | 0.0 | 0.00 | 0.04 | 0.04 | 86 | 1013.5 |
| 20260509024603 | 51 | 246 | 0.0 | 0.0 | 0.00 | 0.04 | 0.04 | 85 | 1013.3 |
| 20260509023603 | 51 | 246 | 0.0 | 0.0 | 0.00 | 0.04 | 0.04 | 85 | 1013.5 |
| 20260509022625 | 51 | 246 | 0.0 | 0.0 | 0.00 | 0.04 | 0.04 | 85 | 1013.3 |
| 20260509021603 | 51 | 246 | 0.0 | 0.0 | 0.00 | 0.04 | 0.04 | 84 | 1013.2 |
| 20260509020604 | 51 | 246 | 0.0 | 0.0 | 0.00 | 0.04 | 0.04 | 84 | 1013.1 |
| 20260509015624 | 51 | 246 | 0.0 | 0.0 | 0.00 | 0.04 | 0.04 | 84 | 1012.9 |
| 20260509014603 | 51 | 246 | 0.0 | 0.0 | 0.00 | 0.04 | 0.04 | 83 | 1012.8 |
| 20260509013604 | 51 | 246 | 0.0 | 0.0 | 0.00 | 0.04 | 0.04 | 82 | 1012.5 |
| 20260509012603 | 52 | 246 | 0.0 | 0.0 | 0.00 | 0.04 | 0.04 | 82 | 1012.5 |
| 20260509011624 | 52 | 246 | 0.0 | 0.0 | 0.00 | 0.04 | 0.04 | 81 | 1012.4 |
| 20260509010603 | 52 | 246 | 0.0 | 0.0 | 0.00 | 0.04 | 0.04 | 81 | 1012.2 |
| 20260509005603 | 52 | 246 | 0.0 | 0.0 | 0.00 | 0.04 | 0.04 | 81 | 1012.1 |
| 20260509004603 | 52 | 246 | 0.0 | 0.0 | 0.00 | 0.04 | 0.04 | 80 | 1011.8 |
| 20260509003604 | 53 | 246 | 0.0 | 0.0 | 0.00 | 0.04 | 0.04 | 80 | 1011.8 |
| 20260509002603 | 53 | 246 | 0.0 | 0.0 | 0.00 | 0.04 | 0.04 | 78 | 1011.6 |
| 20260509001603 | 53 | 246 | 0.0 | 0.0 | 0.00 | 0.04 | 0.04 | 78 | 1011.6 |
| 20260509000603 | 54 | 246 | 0.0 | 0.0 | 0.00 | 0.04 | 0.04 | 77 | 1011.7 |
| 20260508235603 | 54 | 246 | 0.0 | 0.0 | 0.00 | 0.04 | 0.04 | 75 | 1011.7 |
| 20260508234603 | 55 | 246 | 0.0 | 0.0 | 0.00 | 0.04 | 0.04 | 74 | 1011.8 |
| 20260508233624 | 55 | 246 | 0.0 | 0.0 | 0.00 | 0.04 | 0.04 | 73 | 1011.8 |
| 20260508232603 | 56 | 246 | 0.0 | 0.0 | 0.00 | 0.04 | 0.04 | 70 | 1011.4 |
| 20260508231602 | 57 | 246 | 0.0 | 0.0 | 0.00 | 0.04 | 0.04 | 70 | 1011.5 |
| 20260508230603 | 57 | 246 | 0.0 | 0.0 | 0.00 | 0.04 | 0.04 | 68 | 1011.5 |
| 20260508225603 | 57 | 246 | 0.0 | 0.0 | 0.00 | 0.04 | 0.04 | 66 | 1011.4 |
| 20260508224604 | 57 | 246 | 0.0 | 0.0 | 0.00 | 0.04 | 0.04 | 65 | 1011.3 |
| 20260508223603 | 57 | 246 | 0.0 | 0.0 | 0.00 | 0.04 | 0.04 | 65 | 1011.4 |
| 20260508222624 | 57 | 246 | 0.0 | 1.0 | 0.00 | 0.04 | 0.04 | 65 | 1011.3 |
| 20260508221603 | 57 | 246 | 0.0 | 0.0 | 0.00 | 0.04 | 0.04 | 63 | 1011.4 |
| 20260508220603 | 57 | 246 | 0.0 | 4.0 | 0.00 | 0.04 | 0.04 | 66 | 1011.4 |
| 20260508215603 | 57 | 246 | 0.0 | 0.0 | 0.00 | 0.04 | 0.04 | 65 | 1011.3 |
| 20260508214603 | 58 | 246 | 0.0 | 3.0 | 0.00 | 0.04 | 0.04 | 63 | 1011.3 |
| 20260508213604 | 58 | 246 | 0.0 | 3.0 | 0.00 | 0.04 | 0.04 | 64 | 1011.4 |
| 20260508212603 | 57 | 245 | 0.0 | 4.0 | 0.00 | 0.04 | 0.04 | 64 | 1011.3 |
| 20260508211603 | 57 | 245 | 0.0 | 7.0 | 0.00 | 0.04 | 0.04 | 67 | 1011.4 |
| 20260508210632 | 57 | 246 | 2.0 | 8.0 | 0.00 | 0.04 | 0.04 | 64 | 1011.8 |
| 20260508205603 | 57 | 250 | 0.0 | 8.0 | 0.00 | 0.04 | 0.04 | 62 | 1011.9 |
| 20260508204604 | 57 | 263 | 0.0 | 7.0 | 0.00 | 0.04 | 0.04 | 62 | 1011.8 |
| 20260508203603 | 57 | 355 | 0.0 | 0.0 | 0.00 | 0.04 | 0.04 | 66 | 1011.7 |
| 20260508202603 | 57 | 345 | 0.0 | 0.0 | 0.00 | 0.04 | 0.04 | 67 | 1011.7 |
| 20260508201603 | 57 | 345 | 0.0 | 3.0 | 0.00 | 0.04 | 0.04 | 65 | 1011.4 |
| 20260508200603 | 57 | 348 | 1.0 | 6.0 | 0.00 | 0.04 | 0.04 | 66 | 1011.5 |
| 20260508195604 | 57 | 350 | 0.0 | 4.0 | 0.00 | 0.04 | 0.04 | 66 | 1011.6 |
| 20260508194603 | 57 | 359 | 1.0 | 9.0 | 0.00 | 0.04 | 0.04 | 64 | 1011.8 |
| 20260508193602 | 57 | 351 | 4.0 | 11.0 | 0.00 | 0.04 | 0.04 | 63 | 1011.6 |
| 20260508192603 | 57 | 21 | 4.0 | 11.0 | 0.00 | 0.04 | 0.04 | 63 | 1011.9 |
| 20260508191603 | 57 | 337 | 1.0 | 8.0 | 0.00 | 0.04 | 0.04 | 66 | 1012.0 |
| 20260508190624 | 56 | 325 | 3.0 | 8.0 | 0.00 | 0.04 | 0.04 | 66 | 1012.0 |
| 20260508185603 | 55 | 305 | 1.0 | 8.0 | 0.00 | 0.04 | 0.04 | 67 | 1012.2 |
| 20260508184603 | 55 | 283 | 2.0 | 6.0 | 0.00 | 0.04 | 0.04 | 66 | 1012.4 |
| 20260508183603 | 56 | 276 | 0.0 | 12.0 | 0.00 | 0.04 | 0.04 | 63 | 1012.2 |
| 20260508182624 | 57 | 286 | 2.0 | 9.0 | 0.00 | 0.04 | 0.04 | 58 | 1012.3 |
| 20260508181604 | 58 | 263 | 4.0 | 7.0 | 0.00 | 0.04 | 0.04 | 53 | 1011.9 |
| 20260508180603 | 58 | 266 | 4.0 | 13.0 | 0.00 | 0.04 | 0.04 | 52 | 1011.5 |
| 20260508175603 | 59 | 245 | 4.0 | 12.0 | 0.00 | 0.04 | 0.04 | 52 | 1011.4 |
| 20260508174603 | 58 | 236 | 9.0 | 18.0 | 0.00 | 0.04 | 0.04 | 52 | 1011.5 |
| 20260508173603 | 57 | 272 | 5.0 | 11.0 | 0.00 | 0.04 | 0.04 | 51 | 1011.5 |
| 20260508172604 | 58 | 260 | 2.0 | 14.0 | 0.00 | 0.04 | 0.04 | 51 | 1011.6 |
| 20260508171603 | 59 | 280 | 10.0 | 24.0 | 0.00 | 0.04 | 0.04 | 51 | 1011.6 |